Time;durP1;ratioP1;P1;durP2;ratioP2;P2;SDS_P1;SDS_P2;PMS_P1;PMS_P2;Temp;Humidity;BMP_temperature;BMP_pressure;BME280_temperature;BME280_humidity;BME280_pressure;Samples;Min_cycle;Max_cycle;Signal;HPM_P1;HPM_P2
2022/04/13 00:01:36;;;;;;;6.30;5.70;;;;;;;5.49;100.00;96902.69;4987395;28;20618;-54
2022/04/13 00:04:06;;;;;;;5.03;4.60;;;;;;;5.39;100.00;96900.16;5032405;28;20227;-55
2022/04/13 00:06:38;;;;;;;6.87;5.33;;;;;;;5.38;100.00;96902.97;5035363;28;20986;-54
2022/04/13 00:09:07;;;;;;;5.27;4.57;;;;;;;5.36;100.00;96903.97;5014059;28;20227;-56
2022/04/13 00:11:35;;;;;;;6.10;4.77;;;;;;;5.39;100.00;96907.25;5014643;28;20227;-54
2022/04/13 00:14:04;;;;;;;5.10;4.70;;;;;;;5.41;100.00;96908.72;5033915;28;20308;-55
2022/04/13 00:16:32;;;;;;;4.73;4.30;;;;;;;5.43;100.00;96914.63;4982381;28;20219;-54
2022/04/13 00:19:01;;;;;;;7.50;4.87;;;;;;;5.46;100.00;96909.06;5029870;28;20246;-55
2022/04/13 00:21:30;;;;;;;4.33;4.03;;;;;;;5.44;100.00;96911.03;5031783;28;20231;-49
2022/04/13 00:23:59;;;;;;;5.33;4.80;;;;;;;5.42;100.00;96910.38;5015878;28;20707;-56
2022/04/13 00:26:28;;;;;;;6.40;4.90;;;;;;;5.32;100.00;96909.66;5014830;28;20852;-51
2022/04/13 00:28:56;;;;;;;5.27;4.07;;;;;;;5.35;100.00;96919.88;5034021;28;20624;-55
2022/04/13 00:31:24;;;;;;;5.37;4.60;;;;;;;5.31;100.00;96918.53;5035030;28;20295;-49
2022/04/13 00:33:52;;;;;;;5.37;4.47;;;;;;;5.12;100.00;96909.91;4988009;28;20230;-57
2022/04/13 00:36:20;;;;;;;4.93;4.43;;;;;;;4.96;100.00;96902.78;5024995;28;20223;-53
2022/04/13 00:38:50;;;;;;;5.80;4.43;;;;;;;4.89;100.00;96910.44;5028457;28;20829;-56
2022/04/13 00:41:18;;;;;;;4.27;3.87;;;;;;;4.84;100.00;96912.72;5016411;28;20753;-52
2022/04/13 00:44:02;;;;;;;4.63;4.23;;;;;;;4.88;100.00;96910.56;5019785;28;20235;-57
2022/04/13 00:46:30;;;;;;;6.80;4.37;;;;;;;4.96;100.00;96909.81;5032214;28;20417;-50
2022/04/13 00:48:59;;;;;;;4.33;3.97;;;;;;;4.95;100.00;96910.78;4990927;28;20322;-58
2022/04/13 00:51:27;;;;;;;4.70;4.40;;;;;;;4.97;100.00;96908.84;5027236;28;20619;-53
2022/04/13 00:53:59;;;;;;;6.50;5.97;;;;;;;4.97;100.00;96914.91;5026026;28;21254;-54
2022/04/13 00:56:29;;;;;;;4.80;4.40;;;;;;;4.90;100.00;96922.59;4989985;28;20298;-51
2022/04/13 00:59:03;;;;;;;5.00;4.57;;;;;;;4.88;100.00;96918.44;5011965;28;20231;-58
2022/04/13 01:01:31;;;;;;;4.93;4.43;;;;;;;4.83;100.00;96913.69;5023102;28;20218;-54
2022/04/13 01:04:01;;;;;;;5.40;4.83;;;;;;;4.78;100.00;96914.13;4980862;28;20237;-55
2022/04/13 01:06:30;;;;;;;4.83;4.43;;;;;;;4.78;100.00;96910.69;5021417;28;20228;-51
2022/04/13 01:09:00;;;;;;;5.13;4.73;;;;;;;4.73;100.00;96912.94;5028492;28;20781;-57
2022/04/13 01:11:28;;;;;;;5.27;4.87;;;;;;;4.64;100.00;96905.00;4980820;28;20289;-51
2022/04/13 01:13:57;;;;;;;4.73;4.33;;;;;;;4.64;100.00;96912.06;5006314;28;20632;-57
2022/04/13 01:16:25;;;;;;;6.67;5.10;;;;;;;4.55;100.00;96908.56;5019239;28;20239;-54
2022/04/13 01:18:55;;;;;;;5.30;4.90;;;;;;;4.50;100.00;96908.19;5027208;28;20337;-53
2022/04/13 01:21:40;;;;;;;8.90;6.17;;;;;;;4.46;100.00;96914.72;4972301;28;20266;-55
2022/04/13 01:24:10;;;;;;;5.50;4.60;;;;;;;4.41;100.00;96914.38;5027281;28;20228;-57
2022/04/13 01:26:38;;;;;;;5.63;5.10;;;;;;;4.43;100.00;96920.28;5001376;28;20465;-55
2022/04/13 01:29:07;;;;;;;5.77;5.37;;;;;;;4.38;100.00;96927.78;5010129;28;20671;-55
2022/04/13 01:31:36;;;;;;;5.30;4.90;;;;;;;4.28;100.00;96926.03;4999701;28;20369;-57
2022/04/13 01:34:04;;;;;;;5.60;5.20;;;;;;;4.22;100.00;96923.22;5023423;28;20273;-58
2022/04/13 01:36:33;;;;;;;8.20;4.90;;;;;;;4.16;100.00;96922.81;4978599;28;20318;-55
2022/04/13 01:39:02;;;;;;;5.27;4.60;;;;;;;4.16;100.00;96922.00;5029411;28;20212;-59
2022/04/13 01:41:32;;;;;;;5.47;5.07;;;;;;;4.17;100.00;96915.78;5003839;28;20689;-54
2022/04/13 01:44:00;;;;;;;7.17;5.33;;;;;;;4.08;100.00;96916.69;5028123;28;20227;-53
2022/04/13 01:46:28;;;;;;;6.23;5.70;;;;;;;3.97;100.00;96909.88;4991937;28;20200;-53
2022/04/13 01:48:56;;;;;;;5.03;4.63;;;;;;;3.95;100.00;96912.63;5029348;28;20211;-59
2022/04/13 01:51:25;;;;;;;5.60;5.20;;;;;;;3.88;100.00;96909.78;4992425;28;20314;-54
2022/04/13 01:53:53;;;;;;;5.23;4.83;;;;;;;3.85;100.00;96910.09;5014604;28;20546;-54
2022/04/13 01:56:21;;;;;;;5.70;5.30;;;;;;;3.94;100.00;96904.91;5005514;28;20243;-54
2022/04/13 01:58:51;;;;;;;5.13;4.33;;;;;;;3.91;100.00;96913.91;5022722;28;20450;-56
2022/04/13 02:01:19;;;;;;;5.50;5.00;;;;;;;3.84;100.00;96912.84;5010653;28;20539;-53
2022/04/13 02:03:49;;;;;;;5.63;5.20;;;;;;;3.79;100.00;96908.06;5020919;28;22058;-58
2022/04/13 02:06:18;;;;;;;5.90;5.23;;;;;;;3.76;100.00;96910.94;5016418;28;20298;-53
2022/04/13 02:08:48;;;;;;;5.57;4.90;;;;;;;3.76;100.00;96914.41;4995721;28;20435;-59
2022/04/13 02:11:16;;;;;;;5.47;4.97;;;;;;;3.78;100.00;96909.00;5006246;28;20223;-52
2022/04/13 02:13:45;;;;;;;5.40;4.90;;;;;;;3.82;100.00;96907.78;5004758;28;20549;-57
2022/04/13 02:16:14;;;;;;;4.87;4.47;;;;;;;3.78;100.00;96908.19;5011568;28;20207;-55
2022/04/13 02:18:42;;;;;;;5.93;5.30;;;;;;;3.71;100.00;96914.03;4990867;28;20611;-58
2022/04/13 02:21:10;;;;;;;5.40;4.97;;;;;;;3.65;100.00;96911.16;5022424;28;20239;-51
2022/04/13 02:23:38;;;;;;;6.10;5.57;;;;;;;3.59;100.00;96899.47;4979159;28;20231;-56
2022/04/13 02:26:06;;;;;;;5.10;4.70;;;;;;;3.55;100.00;96903.34;5023119;28;20203;-51
2022/04/13 02:28:34;;;;;;;5.33;4.83;;;;;;;3.47;100.00;96906.72;5004154;28;20207;-55
2022/04/13 02:31:02;;;;;;;6.50;5.90;;;;;;;3.44;100.00;96910.44;5026395;28;20401;-54
2022/04/13 02:33:32;;;;;;;5.70;5.30;;;;;;;3.45;100.00;96901.63;5005281;28;20879;-57
2022/04/13 02:36:00;;;;;;;5.80;5.20;;;;;;;3.40;100.00;96901.25;5026537;28;20210;-54
2022/04/13 02:38:28;;;;;;;5.73;5.30;;;;;;;3.40;100.00;96908.25;4951379;28;21069;-60
2022/04/13 02:40:56;;;;;;;5.70;5.10;;;;;;;3.35;100.00;96908.72;5021914;28;20754;-51
2022/04/13 02:43:25;;;;;;;5.77;5.37;;;;;;;3.31;100.00;96908.16;5003965;28;20906;-59
2022/04/13 02:45:53;;;;;;;5.87;5.30;;;;;;;3.24;100.00;96901.88;5021171;28;20294;-51
2022/04/13 02:48:21;;;;;;;5.63;5.20;;;;;;;3.24;100.00;96911.53;5008707;28;20206;-57
2022/04/13 02:50:52;;;;;;;5.73;5.23;;;;;;;3.24;100.00;96917.56;5026140;28;20220;-57
2022/04/13 02:53:20;;;;;;;5.07;4.67;;;;;;;3.21;100.00;96915.25;4975421;28;20699;-57
2022/04/13 02:55:49;;;;;;;9.43;5.47;;;;;;;3.25;100.00;96908.75;5003347;28;20219;-57
2022/04/13 02:58:17;;;;;;;5.90;5.40;;;;;;;3.24;100.00;96914.94;5018232;28;20199;-57
2022/04/13 03:00:45;;;;;;;4.70;4.40;;;;;;;3.23;100.00;96920.34;5007531;28;20211;-56
2022/04/13 03:03:13;;;;;;;4.77;4.47;;;;;;;3.24;100.00;96916.75;5002515;28;20250;-51
2022/04/13 03:05:41;;;;;;;5.23;4.83;;;;;;;3.17;100.00;96908.66;5024283;28;20200;-57
2022/04/13 03:08:10;;;;;;;6.30;5.20;;;;;;;3.11;100.00;96896.13;4981174;28;20204;-51
2022/04/13 03:10:38;;;;;;;5.80;5.30;;;;;;;3.09;100.00;96898.88;4997645;28;20326;-53
2022/04/13 03:13:06;;;;;;;8.90;5.90;;;;;;;3.11;100.00;96896.94;4989455;28;20250;-55
2022/04/13 03:15:34;;;;;;;5.20;4.70;;;;;;;3.05;100.00;96900.16;5001709;28;20825;-57
2022/04/13 03:18:02;;;;;;;6.63;5.57;;;;;;;3.00;100.00;96897.13;5003946;28;20261;-56
2022/04/13 03:20:30;;;;;;;7.00;5.27;;;;;;;2.97;100.00;96902.66;5022699;28;20240;-57
2022/04/13 03:22:58;;;;;;;6.63;6.03;;;;;;;2.99;100.00;96911.19;5019873;28;20525;-56
2022/04/13 03:25:29;;;;;;;5.17;4.77;;;;;;;2.97;100.00;96910.50;4971179;28;20327;-57
2022/04/13 03:27:57;;;;;;;5.63;5.13;;;;;;;2.98;100.00;96905.13;4988494;28;20656;-54
2022/04/13 03:30:25;;;;;;;5.77;5.20;;;;;;;2.98;100.00;96907.72;4999375;28;20236;-54
2022/04/13 03:32:53;;;;;;;5.80;5.27;;;;;;;2.98;100.00;96906.94;5008505;28;20234;-55
2022/04/13 03:35:22;;;;;;;5.40;5.00;;;;;;;3.03;100.00;96908.16;5017293;28;20688;-57
2022/04/13 03:37:50;;;;;;;5.90;5.43;;;;;;;3.09;100.00;96913.78;5011655;28;20207;-50
2022/04/13 03:40:18;;;;;;;6.53;5.93;;;;;;;3.07;100.00;96913.91;4980341;28;20208;-57
2022/04/13 03:42:47;;;;;;;5.30;4.90;;;;;;;3.08;100.00;96915.56;4999563;28;20227;-52
2022/04/13 03:45:15;;;;;;;6.93;5.50;;;;;;;3.05;100.00;96913.22;5022723;28;20229;-55
2022/04/13 03:47:43;;;;;;;7.20;5.97;;;;;;;3.03;100.00;96916.00;4999717;28;20216;-55
2022/04/13 03:50:12;;;;;;;6.27;5.77;;;;;;;3.01;100.00;96917.09;5007421;28;20348;-57
2022/04/13 03:52:40;;;;;;;6.20;5.50;;;;;;;2.97;100.00;96918.38;5024861;28;20223;-53
2022/04/13 03:55:09;;;;;;;5.90;5.50;;;;;;;3.01;100.00;96924.97;5024699;28;20211;-54
2022/04/13 03:57:38;;;;;;;6.30;5.70;;;;;;;2.96;100.00;96921.94;4976472;28;20216;-56
2022/04/13 04:00:09;;;;;;;6.37;5.80;;;;;;;3.00;100.00;96923.31;5000013;28;20253;-53
2022/04/13 04:02:38;;;;;;;6.07;5.60;;;;;;;2.97;100.00;96915.75;5002796;28;20227;-56
2022/04/13 04:05:07;;;;;;;7.17;5.10;;;;;;;3.10;100.00;96926.72;5004956;28;20907;-57
2022/04/13 04:07:35;;;;;;;6.30;5.70;;;;;;;3.06;100.00;96927.16;5023217;28;20216;-57
2022/04/13 04:10:04;;;;;;;7.17;5.83;;;;;;;3.05;100.00;96934.19;5024601;28;20315;-54
2022/04/13 04:12:36;;;;;;;6.30;5.70;;;;;;;3.01;100.00;96938.03;4980093;28;22408;-59
2022/04/13 04:15:08;;;;;;;6.27;5.77;;;;;;;2.99;100.00;96946.03;5001318;28;20411;-55
2022/04/13 04:17:36;;;;;;;5.57;5.10;;;;;;;2.96;100.00;96940.28;5000949;28;20212;-54
2022/04/13 04:20:06;;;;;;;5.67;5.13;;;;;;;2.87;100.00;96934.94;5021270;28;20389;-59
2022/04/13 04:22:35;;;;;;;6.40;5.80;;;;;;;2.83;100.00;96936.16;5008115;28;20232;-54
2022/04/13 04:25:03;;;;;;;6.47;5.50;;;;;;;2.78;100.00;96943.59;5022352;28;20200;-55
2022/04/13 04:27:31;;;;;;;6.87;5.30;;;;;;;2.74;100.00;96944.84;4975933;28;20215;-53
2022/04/13 04:29:59;;;;;;;5.57;5.07;;;;;;;2.64;100.00;96942.25;5000328;28;20331;-54
2022/04/13 04:32:29;;;;;;;6.37;5.00;;;;;;;2.72;100.00;96942.38;4988882;28;20618;-56
2022/04/13 04:34:57;;;;;;;6.83;5.20;;;;;;;2.69;100.00;96947.06;5026694;28;20281;-56
2022/04/13 04:37:25;;;;;;;5.80;5.30;;;;;;;2.69;100.00;96945.28;5012037;28;20579;-55
2022/04/13 04:39:53;;;;;;;7.23;6.03;;;;;;;2.79;100.00;96945.25;5009928;28;20205;-52
2022/04/13 04:42:21;;;;;;;8.57;5.90;;;;;;;2.83;100.00;96946.63;5028504;28;20247;-53
2022/04/13 04:44:49;;;;;;;6.47;5.83;;;;;;;2.87;100.00;96950.63;4985453;28;20215;-53
2022/04/13 04:47:17;;;;;;;6.20;5.60;;;;;;;2.96;100.00;96948.13;5025891;28;20204;-56
2022/04/13 04:49:47;;;;;;;6.37;5.63;;;;;;;3.12;100.00;96947.53;5004611;28;20207;-52
2022/04/13 04:52:15;;;;;;;6.37;5.13;;;;;;;2.99;100.00;96939.97;5009707;28;20234;-59
2022/04/13 04:54:43;;;;;;;6.00;5.50;;;;;;;2.98;100.00;96947.00;5025373;28;20302;-57
2022/04/13 04:57:11;;;;;;;6.87;5.77;;;;;;;3.02;100.00;96950.16;5002340;28;20600;-56
2022/04/13 04:59:38;;;;;;;7.13;5.40;;;;;;;3.00;100.00;96950.28;4991211;28;20401;-52
2022/04/13 05:02:06;;;;;;;9.53;5.43;;;;;;;2.95;100.00;96955.13;5011364;28;20805;-54
2022/04/13 05:04:34;;;;;;;6.07;5.47;;;;;;;3.02;100.00;96947.56;5013065;28;20800;-57
2022/04/13 05:07:04;;;;;;;6.87;6.13;;;;;;;3.11;100.00;96948.50;5030255;28;20290;-57
2022/04/13 05:09:32;;;;;;;7.27;6.53;;;;;;;3.24;100.00;96958.66;5016413;28;20216;-52
2022/04/13 05:12:02;;;;;;;7.47;5.73;;;;;;;3.32;100.00;96964.00;5028463;28;20453;-53
2022/04/13 05:14:30;;;;;;;6.37;5.53;;;;;;;3.36;100.00;96960.13;4982178;28;20229;-60
2022/04/13 05:16:58;;;;;;;5.90;5.33;;;;;;;3.46;100.00;96962.72;5015109;28;20223;-51
2022/04/13 05:19:33;;;;;;;6.17;5.57;;;;;;;3.59;100.00;96963.19;5011074;28;20199;-59
2022/04/13 05:22:01;;;;;;;6.03;5.30;;;;;;;3.68;100.00;96961.50;5028062;28;20235;-57
2022/04/13 05:24:30;;;;;;;5.97;5.37;;;;;;;3.73;100.00;96963.66;4991997;28;20204;-57
2022/04/13 05:26:58;;;;;;;7.27;6.57;;;;;;;3.84;100.00;96962.66;5028450;28;20199;-55
2022/04/13 05:29:26;;;;;;;9.07;6.90;;;;;;;3.94;100.00;96968.66;4993556;28;20219;-54
2022/04/13 05:31:54;;;;;;;7.13;5.53;;;;;;;3.96;100.00;96971.13;5010301;28;20223;-56
2022/04/13 05:34:22;;;;;;;6.63;6.13;;;;;;;4.01;100.00;96971.50;5024234;28;20330;-58
2022/04/13 05:36:50;;;;;;;6.87;5.87;;;;;;;4.04;100.00;96971.22;5017015;28;20218;-57
2022/04/13 05:39:18;;;;;;;7.27;6.13;;;;;;;4.22;100.00;96979.09;5023602;28;20201;-55
2022/04/13 05:41:48;;;;;;;6.70;6.20;;;;;;;4.38;100.00;96978.44;5000592;28;20314;-58
2022/04/13 05:44:15;;;;;;;6.77;6.10;;;;;;;4.37;100.00;96989.09;5030655;28;20867;-57
2022/04/13 05:46:43;;;;;;;7.47;6.23;;;;;;;4.49;100.00;96986.06;4969867;28;20971;-56
2022/04/13 05:49:12;;;;;;;7.20;6.50;;;;;;;4.68;100.00;96983.44;5025848;28;20250;-57
2022/04/13 05:51:40;;;;;;;7.90;6.27;;;;;;;4.83;100.00;96986.34;5014358;28;21063;-57
2022/04/13 05:54:08;;;;;;;7.43;6.77;;;;;;;5.00;100.00;96987.28;5028187;28;20223;-60
2022/04/13 05:56:36;;;;;;;7.50;6.80;;;;;;;5.27;100.00;96996.00;5022084;28;20660;-58
2022/04/13 05:59:05;;;;;;;7.37;6.67;;;;;;;5.37;100.00;96991.47;5027288;28;20215;-55
2022/04/13 06:01:33;;;;;;;8.93;7.03;;;;;;;5.46;100.00;96994.97;4995069;28;20218;-55
2022/04/13 06:04:01;;;;;;;8.67;6.20;;;;;;;5.66;100.00;96998.19;5008893;28;20325;-58
2022/04/13 06:06:30;;;;;;;8.60;6.93;;;;;;;5.71;100.00;97001.16;5011692;28;20616;-56
2022/04/13 06:08:58;;;;;;;7.67;6.93;;;;;;;5.74;100.00;97003.47;5027289;28;20195;-58
2022/04/13 06:11:26;;;;;;;6.37;5.80;;;;;;;5.88;100.00;97004.69;5028615;28;20207;-57
2022/04/13 06:13:54;;;;;;;10.00;6.97;;;;;;;5.98;100.00;97006.34;5028946;28;20414;-58
2022/04/13 06:16:23;;;;;;;6.73;6.10;;;;;;;6.20;100.00;97003.19;5030618;28;20215;-59
2022/04/13 06:18:51;;;;;;;8.17;7.37;;;;;;;6.42;100.00;97008.00;4976190;28;20208;-55
2022/04/13 06:21:19;;;;;;;8.17;7.37;;;;;;;6.56;100.00;97007.34;5026008;28;20246;-57
2022/04/13 06:23:47;;;;;;;7.63;6.70;;;;;;;6.84;100.00;97007.03;5014329;28;20254;-52
2022/04/13 06:26:15;;;;;;;7.10;6.40;;;;;;;6.92;100.00;97001.78;5029492;28;20207;-58
2022/04/13 06:28:43;;;;;;;6.77;6.17;;;;;;;7.23;100.00;97001.09;5025880;28;20214;-54
2022/04/13 06:31:12;;;;;;;7.97;7.10;;;;;;;7.47;100.00;97017.84;5030826;28;20712;-57
2022/04/13 06:33:42;;;;;;;8.73;6.23;;;;;;;7.79;100.00;97016.13;4978401;28;20224;-56
2022/04/13 06:36:10;;;;;;;9.07;6.63;;;;;;;8.32;100.00;97023.47;5026328;28;20284;-56
2022/04/13 06:38:40;;;;;;;7.13;6.40;;;;;;;8.91;100.00;97019.47;5009837;28;20237;-57
2022/04/13 06:41:08;;;;;;;7.07;5.70;;;;;;;9.82;100.00;97021.25;5029380;28;20231;-53
2022/04/13 06:43:37;;;;;;;7.47;5.40;;;;;;;10.35;100.00;97025.53;5022793;28;20228;-56
2022/04/13 06:46:05;;;;;;;7.43;5.70;;;;;;;10.97;93.79;97023.34;5025925;28;20755;-59
2022/04/13 06:48:33;;;;;;;7.97;6.00;;;;;;;11.56;84.91;97018.72;4976171;28;20242;-55
2022/04/13 06:51:04;;;;;;;5.93;5.43;;;;;;;11.85;79.08;97030.09;5016456;28;20551;-54
2022/04/13 06:53:32;;;;;;;6.57;5.40;;;;;;;11.68;79.55;97023.47;5010661;28;20463;-53
2022/04/13 06:56:01;;;;;;;8.20;6.23;;;;;;;11.56;82.57;97031.16;5020685;28;20209;-55
2022/04/13 06:58:29;;;;;;;6.40;5.80;;;;;;;11.20;89.58;97027.63;5024228;28;20499;-54
2022/04/13 07:00:57;;;;;;;9.23;6.20;;;;;;;11.14;92.22;97033.69;5023117;28;20710;-53
2022/04/13 07:03:26;;;;;;;6.40;5.80;;;;;;;10.48;90.29;97030.22;5020889;28;20223;-56
2022/04/13 07:05:54;;;;;;;7.97;6.30;;;;;;;10.38;100.00;97029.66;4993894;28;20234;-55
2022/04/13 07:08:24;;;;;;;6.17;5.57;;;;;;;10.18;99.08;97030.22;5014459;28;20477;-53
2022/04/13 07:10:52;;;;;;;7.23;6.27;;;;;;;10.35;100.00;97030.03;5023810;28;20214;-52
2022/04/13 07:13:20;;;;;;;5.93;5.43;;;;;;;10.42;100.00;97039.75;5025721;28;20223;-57
2022/04/13 07:15:49;;;;;;;5.87;5.37;;;;;;;10.50;100.00;97030.84;5019772;28;20544;-55
2022/04/13 07:18:17;;;;;;;6.17;5.67;;;;;;;10.58;100.00;97029.91;5027156;28;20658;-55
2022/04/13 07:20:45;;;;;;;7.67;6.80;;;;;;;10.49;100.00;97025.75;4977711;28;20234;-55
2022/04/13 07:23:13;;;;;;;6.73;6.13;;;;;;;10.53;98.25;97030.47;5025344;28;20225;-55
2022/04/13 07:25:43;;;;;;;7.00;6.30;;;;;;;10.76;99.26;97028.66;5010648;28;20208;-55
2022/04/13 07:28:12;;;;;;;6.53;5.73;;;;;;;10.78;97.00;97034.56;5026512;28;20238;-56
2022/04/13 07:30:40;;;;;;;9.07;6.00;;;;;;;10.89;92.33;97034.09;5024023;28;20206;-56
2022/04/13 07:33:08;;;;;;;8.83;6.53;;;;;;;11.24;96.21;97028.88;5024392;28;20223;-55
2022/04/13 07:35:36;;;;;;;7.53;6.23;;;;;;;11.49;85.87;97030.28;4994617;28;20656;-56
2022/04/13 07:38:04;;;;;;;7.50;6.37;;;;;;;11.75;81.17;97036.78;5014525;28;20280;-56
2022/04/13 07:40:32;;;;;;;8.57;6.43;;;;;;;12.16;69.82;97026.19;5012643;28;20238;-53
2022/04/13 07:43:02;;;;;;;7.63;6.30;;;;;;;12.36;67.83;97044.06;5026522;28;20226;-56
2022/04/13 07:45:31;;;;;;;8.63;6.03;;;;;;;12.35;63.54;97047.75;5024596;28;20214;-56
2022/04/13 07:47:59;;;;;;;7.53;5.67;;;;;;;12.55;67.75;97046.97;5022925;28;20212;-56
2022/04/13 07:50:28;;;;;;;6.47;5.70;;;;;;;12.68;60.02;97046.19;5022050;28;20318;-57
2022/04/13 07:52:56;;;;;;;5.93;5.33;;;;;;;12.74;61.07;97045.38;4994294;28;20423;-56
2022/04/13 07:55:24;;;;;;;5.73;5.23;;;;;;;12.74;60.03;97056.84;5022127;28;20239;-57
2022/04/13 07:57:52;;;;;;;7.90;5.47;;;;;;;12.84;59.82;97047.66;5006852;28;20211;-56
2022/04/13 08:00:22;;;;;;;6.87;5.90;;;;;;;12.98;60.98;97053.81;5028379;28;20736;-52
2022/04/13 08:02:50;;;;;;;9.90;6.83;;;;;;;13.31;58.85;97055.69;5029105;28;20216;-55
2022/04/13 08:05:18;;;;;;;8.90;6.33;;;;;;;13.39;60.02;97054.66;5029004;28;20231;-53
2022/04/13 08:07:46;;;;;;;9.67;6.43;;;;;;;13.46;59.17;97060.84;4980196;28;20439;-56
2022/04/13 08:10:15;;;;;;;6.43;5.60;;;;;;;13.42;61.30;97054.25;5026483;28;20207;-53
2022/04/13 08:12:46;;;;;;;7.47;5.80;;;;;;;13.67;59.23;97049.16;5012696;28;20231;-56
2022/04/13 08:15:14;;;;;;;6.27;5.67;;;;;;;13.56;57.20;97050.59;5027999;28;20199;-56
2022/04/13 08:17:44;;;;;;;6.07;5.47;;;;;;;13.62;56.57;97045.47;5021397;28;20633;-55
2022/04/13 08:20:14;;;;;;;8.83;5.93;;;;;;;13.73;61.34;97045.66;5025873;28;20278;-56
2022/04/13 08:22:43;;;;;;;7.57;6.67;;;;;;;13.67;59.65;97049.16;4984046;28;20235;-55
2022/04/13 08:25:12;;;;;;;6.60;6.00;;;;;;;13.83;55.40;97044.41;5029916;28;20294;-55
2022/04/13 08:27:44;;;;;;;6.83;5.63;;;;;;;14.29;53.60;97043.44;5009689;28;20220;-55
2022/04/13 08:30:13;;;;;;;6.83;6.10;;;;;;;13.82;57.19;97051.56;5027912;28;20208;-55
2022/04/13 08:32:41;;;;;;;7.00;6.30;;;;;;;14.20;55.84;97052.72;5024121;28;20230;-55
2022/04/13 08:35:11;;;;;;;7.47;5.83;;;;;;;14.46;52.47;97051.78;5033214;28;20273;-54
2022/04/13 08:37:40;;;;;;;6.27;5.57;;;;;;;14.59;52.23;97042.09;4992130;28;20750;-56
2022/04/13 08:40:11;;;;;;;6.20;5.70;;;;;;;14.75;52.68;97043.44;5029008;28;20219;-53
2022/04/13 08:42:45;;;;;;;7.33;5.63;;;;;;;14.95;49.07;97048.66;5017175;28;20224;-53
2022/04/13 08:45:20;;;;;;;9.33;5.70;;;;;;;15.32;48.00;97051.47;5028220;28;20203;-56
2022/04/13 08:47:49;;;;;;;6.30;5.70;;;;;;;15.59;47.97;97048.59;5025649;28;20217;-59
2022/04/13 08:50:19;;;;;;;6.03;5.53;;;;;;;15.66;48.53;97053.03;5029154;28;20216;-53
2022/04/13 08:52:51;;;;;;;6.73;5.37;;;;;;;15.73;47.20;97051.16;4981783;28;20346;-54
2022/04/13 08:55:20;;;;;;;6.13;5.57;;;;;;;15.79;47.96;97044.91;5020877;28;20228;-55
2022/04/13 08:57:49;;;;;;;8.20;6.10;;;;;;;16.05;46.61;97043.84;5024577;28;20676;-54
2022/04/13 09:00:18;;;;;;;6.23;5.67;;;;;;;16.12;45.43;97045.63;5013994;28;20208;-56
2022/04/13 09:02:53;;;;;;;5.77;5.27;;;;;;;15.69;45.67;97050.75;5024055;28;20435;-56
2022/04/13 09:05:25;;;;;;;6.30;5.70;;;;;;;15.90;45.99;97041.53;5026769;28;20743;-56
2022/04/13 09:08:05;;;;;;;6.63;4.93;;;;;;;16.18;45.43;97044.72;5022846;28;21345;-54
2022/04/13 09:10:33;;;;;;;5.90;5.37;;;;;;;16.15;45.35;97043.34;4983354;28;20220;-56
2022/04/13 09:13:02;;;;;;;9.27;5.97;;;;;;;16.43;45.10;97049.19;5027382;28;20442;-55
2022/04/13 09:15:31;;;;;;;6.13;5.10;;;;;;;16.18;45.82;97050.06;5007739;28;20612;-55
2022/04/13 09:18:02;;;;;;;5.23;4.83;;;;;;;15.96;45.55;97055.03;5028348;28;20254;-56
2022/04/13 09:20:32;;;;;;;6.17;5.27;;;;;;;15.74;45.63;97055.47;5027334;28;20247;-54
2022/04/13 09:23:01;;;;;;;6.30;5.70;;;;;;;15.97;44.22;97046.81;5026214;28;20223;-55
2022/04/13 09:25:31;;;;;;;5.57;5.07;;;;;;;15.81;46.25;97048.19;4983296;28;20219;-54
2022/04/13 09:28:00;;;;;;;6.97;5.70;;;;;;;15.89;48.57;97039.91;5027314;28;20213;-55
2022/04/13 09:30:29;;;;;;;8.20;5.30;;;;;;;15.83;47.59;97048.78;5013573;28;20699;-55
2022/04/13 09:32:58;;;;;;;9.90;5.80;;;;;;;15.67;48.07;97050.16;5023310;28;20211;-53
2022/04/13 09:35:26;;;;;;;13.37;6.00;;;;;;;15.87;48.23;97044.63;5027453;28;20902;-54
2022/04/13 09:37:56;;;;;;;8.93;6.10;;;;;;;16.34;47.43;97054.00;5031839;28;20783;-54
2022/04/13 09:40:30;;;;;;;7.33;6.30;;;;;;;16.41;48.36;97054.72;4998696;28;20219;-52
2022/04/13 09:43:09;;;;;;;6.43;5.83;;;;;;;16.14;49.27;97049.72;5027788;28;20255;-59
2022/04/13 09:45:39;;;;;;;5.80;5.20;;;;;;;16.39;47.39;97040.78;5020744;28;20223;-56
2022/04/13 09:48:09;;;;;;;9.43;5.93;;;;;;;16.33;47.65;97055.03;5026876;28;20215;-55
2022/04/13 09:50:38;;;;;;;7.93;5.53;;;;;;;16.30;48.13;97064.34;5024600;28;20209;-52
2022/04/13 09:53:08;;;;;;;7.03;5.87;;;;;;;16.34;46.91;97062.84;5029119;28;20604;-54
2022/04/13 09:55:41;;;;;;;6.87;6.17;;;;;;;16.28;49.14;97060.25;4989462;28;20294;-56
2022/04/13 09:58:11;;;;;;;8.27;6.17;;;;;;;16.21;48.67;97057.66;5029259;28;20643;-55
2022/04/13 10:00:40;;;;;;;10.43;5.77;;;;;;;16.16;48.41;97063.69;5025859;28;20207;-55
2022/04/13 10:03:13;;;;;;;6.17;5.57;;;;;;;16.25;47.86;97063.38;5016412;28;20288;-53
2022/04/13 10:05:45;;;;;;;6.87;6.17;;;;;;;16.34;47.49;97056.69;5025368;28;20216;-55
2022/04/13 10:08:18;;;;;;;5.77;5.17;;;;;;;16.62;48.02;97055.31;5026228;28;20200;-53
2022/04/13 10:10:47;;;;;;;6.83;5.87;;;;;;;16.61;47.28;97051.81;4990656;28;20212;-55
2022/04/13 10:13:32;;;;;;;5.73;5.23;;;;;;;16.97;46.79;97059.16;5024963;28;20954;-53
2022/04/13 10:16:01;;;;;;;5.73;5.20;;;;;;;17.34;46.27;97054.50;5023870;28;20966;-53
2022/04/13 10:18:31;;;;;;;6.03;5.27;;;;;;;17.16;45.06;97057.25;5014930;28;20212;-54
2022/04/13 10:20:59;;;;;;;9.70;5.83;;;;;;;17.09;45.38;97048.50;5025375;28;20227;-54
2022/04/13 10:23:40;;;;;;;5.77;5.17;;;;;;;17.37;44.88;97047.84;5026961;28;20219;-58
2022/04/13 10:26:10;;;;;;;6.10;5.60;;;;;;;17.52;44.75;97044.72;4990257;28;20891;-57
2022/04/13 10:28:48;;;;;;;5.53;5.00;;;;;;;17.28;44.95;97047.41;5023451;28;20204;-55
2022/04/13 10:31:16;;;;;;;5.27;4.40;;;;;;;17.62;43.62;97044.16;5029278;28;20212;-52
2022/04/13 10:33:47;;;;;;;5.27;4.87;;;;;;;17.63;45.15;97051.97;5012967;28;20235;-53
2022/04/13 10:36:16;;;;;;;5.10;4.70;;;;;;;17.89;44.40;97043.69;5027288;28;20207;-50
2022/04/13 10:38:46;;;;;;;7.40;4.47;;;;;;;17.86;43.35;97038.81;5023841;28;20208;-55
2022/04/13 10:41:16;;;;;;;4.83;4.43;;;;;;;18.03;45.04;97030.88;5001016;28;20226;-55
2022/04/13 10:43:48;;;;;;;5.73;5.23;;;;;;;18.04;42.81;97033.31;5023550;28;21013;-53
2022/04/13 10:46:19;;;;;;;4.77;4.37;;;;;;;18.16;43.70;97030.63;5027866;28;20304;-58
2022/04/13 10:48:48;;;;;;;5.10;4.60;;;;;;;18.37;43.09;97026.47;5008617;28;20783;-55
2022/04/13 10:51:21;;;;;;;5.83;5.23;;;;;;;18.26;42.71;97023.84;5024958;28;20218;-53
2022/04/13 10:54:00;;;;;;;5.57;4.80;;;;;;;18.33;42.42;97021.81;5024543;28;20341;-56
2022/04/13 10:56:29;;;;;;;5.13;4.63;;;;;;;18.27;41.99;97023.59;5020578;28;20207;-56
2022/04/13 10:59:03;;;;;;;5.33;4.83;;;;;;;18.41;43.41;97018.78;5002193;28;20516;-53
2022/04/13 11:01:38;;;;;;;6.03;5.57;;;;;;;18.05;42.24;97020.75;5026196;28;20315;-56
2022/04/13 11:04:07;;;;;;;6.87;4.90;;;;;;;18.45;42.56;97014.56;5023377;28;20310;-54
2022/04/13 11:06:36;;;;;;;4.63;4.27;;;;;;;18.65;42.99;97007.94;5011373;28;20213;-55
2022/04/13 11:09:09;;;;;;;5.37;4.90;;;;;;;18.69;41.78;97005.59;5023719;28;20197;-56
2022/04/13 11:11:37;;;;;;;7.43;5.43;;;;;;;18.50;42.51;97006.63;5026831;28;20683;-54
2022/04/13 11:14:17;;;;;;;8.03;5.00;;;;;;;18.63;42.43;97002.84;4986023;28;20227;-57
2022/04/13 11:16:45;;;;;;;6.37;4.80;;;;;;;19.01;42.11;96997.06;5024685;28;21185;-53
2022/04/13 11:19:21;;;;;;;6.20;5.17;;;;;;;19.05;42.48;96996.31;5027741;28;20211;-53
2022/04/13 11:22:09;;;;;;;6.10;5.60;;;;;;;18.86;42.87;97002.97;5011178;28;20795;-55
2022/04/13 11:24:39;;;;;;;5.43;4.93;;;;;;;18.93;42.91;96999.03;5024649;28;20200;-55
2022/04/13 11:27:08;;;;;;;6.53;5.93;;;;;;;19.23;42.29;96992.59;5026479;28;20196;-58
2022/04/13 11:29:42;;;;;;;5.80;5.30;;;;;;;19.14;43.21;96994.06;4983999;28;20219;-56
2022/04/13 11:32:13;;;;;;;5.30;4.90;;;;;;;19.60;43.14;96985.88;5023085;28;20342;-56
2022/04/13 11:34:43;;;;;;;8.50;4.97;;;;;;;19.99;41.12;96987.75;5019209;28;20239;-56
2022/04/13 11:37:13;;;;;;;6.17;5.57;;;;;;;19.92;41.17;96987.97;5028872;28;20203;-54
2022/04/13 11:39:47;;;;;;;5.17;4.77;;;;;;;20.01;42.08;96982.94;5030498;28;20644;-54
2022/04/13 11:42:32;;;;;;;5.53;5.10;;;;;;;20.13;42.03;96987.41;5029703;28;20223;-54
2022/04/13 11:45:02;;;;;;;5.90;5.17;;;;;;;20.53;41.02;96973.59;4993144;28;20616;-54